createdAt,value
2023-01-26T00:02:28.116Z,31.85
2023-01-26T00:04:55.747Z,31.75
2023-01-26T00:07:23.367Z,29.40
2023-01-26T00:09:51.085Z,28.98
2023-01-26T00:12:18.707Z,28.23
2023-01-26T00:14:52.784Z,28.15
2023-01-26T00:17:26.322Z,28.25
2023-01-26T00:19:58.608Z,29.63
2023-01-26T00:22:27.998Z,29.63
2023-01-26T00:24:56.422Z,29.88
2023-01-26T00:27:26.614Z,31.95
2023-01-26T00:29:57.379Z,32.40
2023-01-26T00:32:27.184Z,29.48
2023-01-26T00:34:55.059Z,29.70
2023-01-26T00:37:22.638Z,29.90
2023-01-26T00:39:51.679Z,30.23
2023-01-26T00:42:20.868Z,30.17
2023-01-26T00:44:48.629Z,32.42
2023-01-26T00:47:16.620Z,30.67
2023-01-26T00:49:47.182Z,29.83
2023-01-26T00:52:15.319Z,31.33
2023-01-26T00:54:47.676Z,32.22
2023-01-26T00:57:15.864Z,30.80
2023-01-26T00:59:43.658Z,29.75
2023-01-26T01:02:11.458Z,28.48
2023-01-26T01:07:08.842Z,29.20
2023-01-26T01:09:37.011Z,27.80
2023-01-26T01:12:05.029Z,29.15
2023-01-26T01:14:32.889Z,31.27
2023-01-26T01:17:00.531Z,30.05
2023-01-26T01:19:31.331Z,31.60
2023-01-26T01:21:59.262Z,30.92
2023-01-26T01:24:29.600Z,29.48
2023-01-26T01:26:57.327Z,28.95
2023-01-26T01:29:25.104Z,29.15
2023-01-26T01:31:52.945Z,28.23
2023-01-26T01:34:20.712Z,28.48
2023-01-26T01:36:50.699Z,28.77
2023-01-26T01:39:20.842Z,29.77
2023-01-26T01:41:48.463Z,29.30
2023-01-26T01:44:21.505Z,28.25
2023-01-26T01:46:54.209Z,25.05
2023-01-26T01:49:27.376Z,22.45
2023-01-26T01:52:06.114Z,23.55
2023-01-26T01:54:56.977Z,24.10
2023-01-26T01:57:29.464Z,24.90
2023-01-26T02:00:12.468Z,22.25
2023-01-26T02:03:06.015Z,22.30
2023-01-26T02:05:39.329Z,25.10
2023-01-26T02:08:10.073Z,19.15
2023-01-26T02:10:38.233Z,22.20
2023-01-26T02:13:09.609Z,17.77
2023-01-26T02:15:38.418Z,18.10
2023-01-26T02:18:06.219Z,18.90
2023-01-26T02:20:58.555Z,20.85
2023-01-26T02:23:55.585Z,20.80
2023-01-26T02:26:28.484Z,20.13
2023-01-26T02:28:56.899Z,20.80
2023-01-26T02:31:26.974Z,22.73
2023-01-26T02:33:56.599Z,21.65
2023-01-26T02:36:27.569Z,22.83
2023-01-26T02:39:25.345Z,23.30
2023-01-26T02:42:22.265Z,20.83
2023-01-26T02:44:50.453Z,23.70
2023-01-26T02:47:20.260Z,21.00
2023-01-26T02:49:50.830Z,20.80
2023-01-26T02:52:23.502Z,18.98
2023-01-26T02:55:19.801Z,20.63
2023-01-26T02:57:47.740Z,19.63
2023-01-26T03:00:18.784Z,20.27
2023-01-26T03:02:48.296Z,20.92
2023-01-26T03:05:15.977Z,21.65
2023-01-26T03:07:46.556Z,21.00
2023-01-26T03:10:16.725Z,19.17
2023-01-26T03:12:45.682Z,17.95
2023-01-26T03:15:33.163Z,19.10
2023-01-26T03:18:23.705Z,19.38
2023-01-26T03:21:09.936Z,20.85
2023-01-26T03:23:57.560Z,20.10
2023-01-26T03:26:45.665Z,19.08
2023-01-26T03:29:13.859Z,19.88
2023-01-26T03:31:43.388Z,20.75
2023-01-26T03:34:14.071Z,22.30
2023-01-26T03:36:45.678Z,20.65
2023-01-26T03:39:34.393Z,19.58
2023-01-26T03:42:21.581Z,19.45
2023-01-26T03:45:07.797Z,21.65
2023-01-26T03:48:09.814Z,21.88
2023-01-26T03:50:56.021Z,19.30
2023-01-26T03:53:43.323Z,20.52
2023-01-26T03:56:18.395Z,20.08
2023-01-26T03:59:08.053Z,20.33
2023-01-26T04:02:05.472Z,19.73
2023-01-26T04:04:52.919Z,20.60
2023-01-26T04:07:42.993Z,20.42
2023-01-26T04:10:11.393Z,20.55
2023-01-26T04:12:39.189Z,20.02
2023-01-26T04:15:33.095Z,21.10
2023-01-26T04:18:25.880Z,22.65
2023-01-26T04:21:13.621Z,21.13
2023-01-26T04:23:43.621Z,23.23
2023-01-26T04:26:11.632Z,26.27
2023-01-26T04:28:40.137Z,22.52
2023-01-26T04:31:08.079Z,21.48
2023-01-26T04:33:40.470Z,25.83
2023-01-26T04:36:10.111Z,27.17
2023-01-26T04:38:41.623Z,24.13
2023-01-26T04:41:09.685Z,26.17
2023-01-26T04:43:45.535Z,24.05
2023-01-26T04:46:14.128Z,23.50
2023-01-26T04:48:42.511Z,24.10
2023-01-26T04:51:13.987Z,22.83
2023-01-26T04:53:44.875Z,24.33
2023-01-26T04:56:22.597Z,26.73
2023-01-26T04:58:52.800Z,27.20
2023-01-26T05:01:21.734Z,26.25
2023-01-26T12:04:21.994Z,19.92
2023-01-26T12:07:00.190Z,20.95
2023-01-26T12:09:47.898Z,20.10
2023-01-26T12:12:38.274Z,19.50
2023-01-26T12:15:16.008Z,19.30
2023-01-26T12:17:58.953Z,20.42
2023-01-26T12:20:45.812Z,20.55
2023-01-26T12:23:19.552Z,19.35
2023-01-26T12:25:53.104Z,19.88
2023-01-26T12:28:42.127Z,21.73
2023-01-26T12:31:12.961Z,18.92
2023-01-26T12:33:41.186Z,19.75
2023-01-26T12:36:45.702Z,19.45
2023-01-26T12:39:20.691Z,19.65
2023-01-26T12:41:59.043Z,19.73
2023-01-26T12:44:35.438Z,18.98
2023-01-26T12:47:13.797Z,17.50
2023-01-26T12:50:02.416Z,17.00
2023-01-26T12:52:43.011Z,18.15
2023-01-26T12:55:20.099Z,18.65
2023-01-26T12:58:21.416Z,17.58
2023-01-26T13:01:41.644Z,18.13
2023-01-26T13:04:15.851Z,17.45
2023-01-26T13:07:02.889Z,17.30
2023-01-26T13:09:31.015Z,17.35
2023-01-26T13:12:00.418Z,16.55
2023-01-26T13:14:37.490Z,17.40
2023-01-26T13:17:17.515Z,17.08
2023-01-26T13:19:45.149Z,17.02
2023-01-26T13:22:18.885Z,16.63
2023-01-26T13:24:49.195Z,16.33
2023-01-26T13:27:43.835Z,16.13
2023-01-26T13:30:23.561Z,15.05
2023-01-26T13:32:52.586Z,15.93
2023-01-26T13:35:25.782Z,15.05
2023-01-26T13:37:59.412Z,15.10
2023-01-26T13:40:36.498Z,15.73
2023-01-26T13:43:24.600Z,18.30
2023-01-26T13:46:17.786Z,17.40
2023-01-26T13:48:53.763Z,16.55
2023-01-26T13:51:35.948Z,15.10
2023-01-26T13:58:33.951Z,17.60
2023-01-26T14:01:07.361Z,15.55
2023-01-26T14:03:34.956Z,17.02
2023-01-26T14:06:11.584Z,14.95
2023-01-26T14:08:39.739Z,14.57
2023-01-26T14:11:21.467Z,15.00
2023-01-26T14:13:57.521Z,15.20
2023-01-26T14:16:31.467Z,14.40
2023-01-26T14:19:09.633Z,16.02
2023-01-26T14:21:52.075Z,13.85
2023-01-26T14:24:48.397Z,15.13
2023-01-26T14:27:21.750Z,14.80
2023-01-26T14:29:50.446Z,15.88
2023-01-26T14:32:18.012Z,15.73
2023-01-26T14:34:54.115Z,15.85
2023-01-26T14:37:22.994Z,15.77
2023-01-26T14:40:09.716Z,16.85
2023-01-26T14:45:33.273Z,15.85
2023-01-26T14:48:07.891Z,15.70
2023-01-26T14:50:37.729Z,18.65
2023-01-26T14:53:13.275Z,17.75
2023-01-26T14:55:44.257Z,17.55
2023-01-26T14:58:21.441Z,18.30
2023-01-26T15:00:50.285Z,18.08
2023-01-26T15:03:37.186Z,18.17
2023-01-26T15:06:17.948Z,18.42
2023-01-26T15:09:04.526Z,18.92
2023-01-26T15:11:58.851Z,19.40
2023-01-26T15:14:35.689Z,18.58
2023-01-26T15:17:04.260Z,18.88
2023-01-26T15:19:39.712Z,21.80
2023-01-26T15:22:22.184Z,22.65
2023-01-26T15:25:29.045Z,23.35
2023-01-26T15:27:59.276Z,23.42
2023-01-26T15:30:33.409Z,22.60
2023-01-26T15:33:02.483Z,23.48
2023-01-26T15:35:34.997Z,22.75
2023-01-26T15:38:11.672Z,23.92
2023-01-26T15:40:39.935Z,25.63
2023-01-26T15:43:15.147Z,25.65
2023-01-26T15:45:51.554Z,24.95
2023-01-26T15:48:19.634Z,24.45
2023-01-26T15:50:48.689Z,23.98
2023-01-26T15:53:20.142Z,25.65
2023-01-26T15:55:52.885Z,25.00
2023-01-26T15:58:20.528Z,23.17
2023-01-26T16:00:48.851Z,24.15
2023-01-26T16:03:19.241Z,23.65
2023-01-26T16:05:50.479Z,24.55
2023-01-26T16:08:18.962Z,23.52
2023-01-26T16:10:47.547Z,29.30
2023-01-26T16:13:18.155Z,27.42
2023-01-26T16:15:50.802Z,25.25
2023-01-26T16:18:18.809Z,25.08
2023-01-26T16:20:48.065Z,24.83
2023-01-26T16:23:24.809Z,25.05
2023-01-26T16:25:52.649Z,26.05
2023-01-26T16:28:20.951Z,26.20
2023-01-26T16:30:50.933Z,26.48
2023-01-26T16:33:21.620Z,29.23
2023-01-26T16:35:49.245Z,28.58
2023-01-26T16:38:17.163Z,31.15
2023-01-26T16:40:47.347Z,30.65
2023-01-26T16:43:21.447Z,30.38
2023-01-26T16:45:52.227Z,31.15
2023-01-26T16:48:20.486Z,35.88
2023-01-26T16:50:52.258Z,37.10
2023-01-26T16:53:30.586Z,37.90
2023-01-26T16:55:58.117Z,39.15
2023-01-26T16:58:30.566Z,36.83
2023-01-26T17:00:58.282Z,39.10
2023-01-26T17:03:25.883Z,41.58
2023-01-26T17:05:56.075Z,42.63
2023-01-26T17:08:23.664Z,41.33
2023-01-26T17:11:01.601Z,40.50
2023-01-26T17:13:31.433Z,44.03
2023-01-26T17:16:00.110Z,43.63
2023-01-26T17:18:27.656Z,57.65
2023-01-26T17:21:02.169Z,54.75
2023-01-26T17:23:31.492Z,53.50
2023-01-26T17:26:00.646Z,52.63
2023-01-26T17:28:28.130Z,53.10
2023-01-26T17:30:59.367Z,53.92
2023-01-26T17:33:29.218Z,51.88
2023-01-26T17:36:04.151Z,48.38
2023-01-26T17:38:34.048Z,48.47
2023-01-26T17:41:02.085Z,47.55
2023-01-26T17:43:30.269Z,48.08
2023-01-26T17:46:10.226Z,48.80
2023-01-26T17:48:38.689Z,51.22
2023-01-26T17:51:08.382Z,51.53
2023-01-26T17:53:40.872Z,50.63
2023-01-26T17:56:10.987Z,52.20
2023-01-26T17:58:39.238Z,53.95
2023-01-26T18:01:08.573Z,57.15
2023-01-26T18:03:41.032Z,57.65
2023-01-26T18:06:09.784Z,54.88
2023-01-26T18:08:38.544Z,56.28
2023-01-26T18:11:09.868Z,56.50
2023-01-26T18:13:39.430Z,59.67
2023-01-26T18:16:08.212Z,56.65
2023-01-26T18:18:36.325Z,59.78
2023-01-26T18:21:14.339Z,58.45
2023-01-26T18:23:45.022Z,56.05
2023-01-26T18:26:13.832Z,58.75
2023-01-26T18:28:42.208Z,58.85
2023-01-26T18:31:30.906Z,59.10
2023-01-26T18:34:00.201Z,58.63
2023-01-26T18:36:29.158Z,59.75
2023-01-26T18:38:59.828Z,59.35
2023-01-26T18:41:31.236Z,58.28
2023-01-26T18:44:00.889Z,59.72
2023-01-26T18:46:31.026Z,58.08
2023-01-26T18:49:03.120Z,58.72
2023-01-26T18:51:35.596Z,62.13
2023-01-26T18:54:04.373Z,58.22
2023-01-26T18:56:34.070Z,57.30
2023-01-26T18:59:01.567Z,56.90
2023-01-26T19:01:29.445Z,55.17
2023-01-26T19:03:58.692Z,54.10
2023-01-26T19:09:01.078Z,56.63
2023-01-26T19:11:31.456Z,56.75
2023-01-26T19:14:00.021Z,57.53
2023-01-26T19:16:28.953Z,59.17
2023-01-26T19:18:56.744Z,79.95
2023-01-26T19:21:25.917Z,78.63
2023-01-26T19:23:56.190Z,86.03
2023-01-26T19:26:26.326Z,78.50
2023-01-26T19:28:54.679Z,77.72
2023-01-26T19:31:23.325Z,81.70
2023-01-26T19:33:56.549Z,82.38
2023-01-26T19:36:25.137Z,87.63
2023-01-26T19:38:52.890Z,86.68
2023-01-26T19:41:22.060Z,81.43
2023-01-26T19:43:50.545Z,80.82
2023-01-26T19:46:18.629Z,77.10
2023-01-26T19:48:46.834Z,76.90
2023-01-26T19:51:16.991Z,70.57
2023-01-26T19:53:47.459Z,70.45
2023-01-26T19:56:29.779Z,74.97
2023-01-26T19:59:00.035Z,71.07
2023-01-26T20:01:29.550Z,68.25
2023-01-26T20:04:00.796Z,67.95
2023-01-26T20:06:32.229Z,66.65
2023-01-26T20:09:00.848Z,67.25
2023-01-26T20:11:29.808Z,62.08
2023-01-26T20:14:00.029Z,66.13
2023-01-26T20:16:29.137Z,64.45
2023-01-26T20:18:57.833Z,62.95
2023-01-26T20:21:25.559Z,62.03
2023-01-26T20:23:55.159Z,56.10
2023-01-26T20:26:24.868Z,60.83
2023-01-26T20:28:56.873Z,57.67
2023-01-26T20:31:26.316Z,57.28
2023-01-26T20:33:55.394Z,55.80
2023-01-26T20:36:26.342Z,54.45
2023-01-26T20:38:54.298Z,50.33
2023-01-26T20:41:25.950Z,47.78
2023-01-26T20:44:00.816Z,48.05
2023-01-26T20:46:36.860Z,46.53
2023-01-26T20:49:08.802Z,54.70
2023-01-26T20:51:38.319Z,58.17
2023-01-26T20:56:35.612Z,55.55
2023-01-26T20:59:04.488Z,57.67
2023-01-26T21:01:36.610Z,53.97
2023-01-26T21:04:05.709Z,51.95
2023-01-26T21:09:02.166Z,47.25
2023-01-26T21:11:31.490Z,47.33
2023-01-26T21:14:01.790Z,49.97
2023-01-26T21:16:31.547Z,53.10
2023-01-26T21:21:27.141Z,45.25
2023-01-26T21:23:54.714Z,47.67
2023-01-26T21:26:24.524Z,51.17
2023-01-26T21:28:54.177Z,52.08
2023-01-26T21:31:25.100Z,54.15
2023-01-26T21:33:53.559Z,55.00
2023-01-26T21:36:23.786Z,54.83
2023-01-26T21:38:52.707Z,52.10
2023-01-26T21:41:44.396Z,51.03
2023-01-26T21:44:14.663Z,49.15
2023-01-26T21:46:44.991Z,50.95
2023-01-26T21:49:13.652Z,51.55
2023-01-26T21:52:02.627Z,49.20
2023-01-26T21:54:30.669Z,38.20
2023-01-26T21:56:59.206Z,43.47
2023-01-26T21:59:26.860Z,43.55
2023-01-26T22:01:56.676Z,45.15
2023-01-26T22:06:52.398Z,41.80
2023-01-26T22:09:21.454Z,42.13
2023-01-26T22:16:09.191Z,39.03
2023-01-26T22:18:37.037Z,40.00
2023-01-26T22:21:04.948Z,45.13
2023-01-26T22:23:37.742Z,47.60
2023-01-26T22:26:23.893Z,43.90
2023-01-26T22:28:53.621Z,41.30
2023-01-26T22:31:23.605Z,38.38
2023-01-26T22:33:51.494Z,36.05
2023-01-26T22:36:19.766Z,34.97
2023-01-26T22:38:47.870Z,34.92
2023-01-26T22:41:21.245Z,35.05
2023-01-26T22:43:54.340Z,36.60
2023-01-26T22:46:23.601Z,39.40
2023-01-26T22:48:51.864Z,41.72
2023-01-26T22:51:22.271Z,38.10
2023-01-26T22:53:51.726Z,30.95
2023-01-26T22:56:19.820Z,27.08
2023-01-26T22:59:00.423Z,25.38
2023-01-26T23:01:30.552Z,23.35
2023-01-26T23:03:58.881Z,22.60
2023-01-26T23:06:27.129Z,21.88
2023-01-26T23:08:55.517Z,22.67
2023-01-26T23:11:26.289Z,24.63
2023-01-26T23:13:55.796Z,25.85
2023-01-26T23:16:25.097Z,27.02
2023-01-26T23:18:54.997Z,26.30
2023-01-26T23:21:23.481Z,23.33
2023-01-26T23:23:51.740Z,20.57
2023-01-26T23:26:20.530Z,20.08
2023-01-26T23:28:48.023Z,20.45
2023-01-26T23:31:16.956Z,20.88
2023-01-26T23:33:44.660Z,23.35
2023-01-26T23:36:13.949Z,23.55
2023-01-26T23:38:41.997Z,24.50
2023-01-26T23:41:09.595Z,27.98
2023-01-26T23:43:37.154Z,28.52
2023-01-26T23:46:06.781Z,28.08
2023-01-26T23:48:34.852Z,27.67
2023-01-26T23:51:05.233Z,27.80
2023-01-26T23:53:33.253Z,29.63
2023-01-26T23:56:05.224Z,29.38
2023-01-26T23:58:33.027Z,31.73
